createdAt,value
2023-05-07T00:01:03.974Z,101151.51
2023-05-07T00:03:36.240Z,101150.98
2023-05-07T00:06:08.873Z,101150.14
2023-05-07T00:08:41.098Z,101152.27
2023-05-07T00:11:13.355Z,101154.53
2023-05-07T00:13:45.579Z,101155.05
2023-05-07T00:16:17.896Z,101155.83
2023-05-07T00:18:50.332Z,101156.59
2023-05-07T00:21:23.400Z,101153.83
2023-05-07T00:23:55.805Z,101159.36
2023-05-07T00:26:27.992Z,101158.58
2023-05-07T00:29:00.187Z,101157.27
2023-05-07T00:31:32.503Z,101156.92
2023-05-07T00:34:04.787Z,101155.39
2023-05-07T00:36:37.199Z,101152.80
2023-05-07T00:39:09.913Z,101152.46
2023-05-07T00:41:42.187Z,101149.60
2023-05-07T00:44:14.499Z,101148.96
2023-05-07T00:46:49.925Z,101148.80
2023-05-07T00:49:22.687Z,101153.36
2023-05-07T00:51:55.145Z,101151.40
2023-05-07T00:54:27.548Z,101152.93
2023-05-07T00:57:00.152Z,101147.66
2023-05-07T00:59:33.106Z,101148.39
2023-05-07T01:02:05.743Z,101148.40
2023-05-07T01:04:38.907Z,101150.21
2023-05-07T01:07:12.080Z,101145.27
2023-05-07T01:09:44.482Z,101149.35
2023-05-07T01:12:17.443Z,101149.73
2023-05-07T01:14:50.904Z,101148.10
2023-05-07T01:17:23.289Z,101146.34
2023-05-07T01:19:55.888Z,101144.80
2023-05-07T01:22:34.782Z,101146.82
2023-05-07T01:25:09.290Z,101151.31
2023-05-07T01:27:41.762Z,101146.38
2023-05-07T01:30:14.884Z,101145.48
2023-05-07T01:32:53.361Z,101142.98
2023-05-07T01:35:28.061Z,101144.84
2023-05-07T01:38:01.073Z,101138.73
2023-05-07T01:40:33.559Z,101137.31
2023-05-07T01:43:07.477Z,101139.15
2023-05-07T01:45:40.286Z,101139.92
2023-05-07T01:48:15.184Z,101140.30
2023-05-07T01:50:48.676Z,101140.73
2023-05-07T01:53:21.067Z,101139.83
2023-05-07T01:55:53.210Z,101126.60
2023-05-07T01:58:25.530Z,101133.15
2023-05-07T02:00:57.726Z,101130.58
2023-05-07T02:03:30.204Z,101122.71
2023-05-07T02:06:02.435Z,101121.36
2023-05-07T02:08:35.128Z,101114.77
2023-05-07T02:11:07.592Z,101113.17
2023-05-07T02:13:40.249Z,101115.59
2023-05-07T02:16:14.835Z,101120.80
2023-05-07T02:18:46.969Z,101121.89
2023-05-07T02:21:19.210Z,101123.30
2023-05-07T02:23:51.723Z,101120.41
2023-05-07T02:26:23.916Z,101112.60
2023-05-07T02:28:56.213Z,101109.67
2023-05-07T02:31:28.624Z,101109.74
2023-05-07T02:34:00.904Z,101113.80
2023-05-07T02:36:33.348Z,101114.39
2023-05-07T02:39:05.570Z,101116.77
2023-05-07T02:41:37.879Z,101115.86
2023-05-07T02:44:10.284Z,101106.97
2023-05-07T02:46:42.675Z,101112.64
2023-05-07T02:49:14.929Z,101109.73
2023-05-07T02:51:47.424Z,101111.35
2023-05-07T02:54:19.769Z,101113.38
2023-05-07T02:56:51.984Z,101112.81
2023-05-07T02:59:24.376Z,101109.64
2023-05-07T03:01:56.888Z,101110.71
2023-05-07T03:04:29.165Z,101109.52
2023-05-07T03:07:01.606Z,101111.48
2023-05-07T03:09:33.976Z,101107.99
2023-05-07T03:12:06.327Z,101111.09
2023-05-07T03:14:38.618Z,101115.11
2023-05-07T03:17:10.811Z,101114.30
2023-05-07T03:19:43.049Z,101115.92
2023-05-07T03:22:15.363Z,101114.61
2023-05-07T03:24:47.721Z,101115.75
2023-05-07T03:27:20.161Z,101121.09
2023-05-07T03:29:52.399Z,101121.23
2023-05-07T03:32:24.885Z,101122.39
2023-05-07T03:34:56.958Z,101127.41
2023-05-07T03:37:29.416Z,101133.00
2023-05-07T03:40:01.701Z,101135.41
2023-05-07T03:42:34.080Z,101136.27
2023-05-07T03:45:07.418Z,101132.92
2023-05-07T03:47:39.733Z,101133.11
2023-05-07T03:50:13.533Z,101134.33
2023-05-07T03:52:46.301Z,101135.40
2023-05-07T03:55:19.107Z,101131.46
2023-05-07T03:57:51.468Z,101131.32
2023-05-07T04:00:24.195Z,101134.09
2023-05-07T04:02:56.561Z,101135.18
2023-05-07T04:05:29.760Z,101137.59
2023-05-07T04:08:03.487Z,101138.98
2023-05-07T04:10:35.730Z,101143.63
2023-05-07T04:13:08.011Z,101148.63
2023-05-07T04:15:40.784Z,101152.70
2023-05-07T04:18:13.033Z,101151.48
2023-05-07T04:20:45.566Z,101154.25
2023-05-07T04:23:17.943Z,101155.46
2023-05-07T04:25:50.448Z,101157.23
2023-05-07T04:28:22.767Z,101155.44
2023-05-07T04:30:55.191Z,101156.42
2023-05-07T04:33:27.450Z,101156.42
2023-05-07T04:36:03.787Z,101158.74
2023-05-07T04:38:36.256Z,101155.77
2023-05-07T04:41:08.973Z,101157.14
2023-05-07T04:43:41.191Z,101158.86
2023-05-07T04:46:13.546Z,101157.85
2023-05-07T04:48:45.911Z,101153.84
2023-05-07T04:51:18.276Z,101153.86
2023-05-07T04:53:51.627Z,101162.25
2023-05-07T04:56:23.906Z,101166.16
2023-05-07T04:58:56.141Z,101166.95
2023-05-07T05:01:28.585Z,101165.90
2023-05-07T05:04:01.781Z,101166.89
2023-05-07T05:06:34.116Z,101165.09
2023-05-07T05:09:07.005Z,101161.88
2023-05-07T05:11:39.224Z,101157.90
2023-05-07T05:14:11.621Z,101154.15
2023-05-07T05:16:43.890Z,101154.64
2023-05-07T05:19:16.293Z,101163.26
2023-05-07T05:21:48.648Z,101164.48
2023-05-07T05:24:21.177Z,101165.66
2023-05-07T05:26:55.661Z,101164.26
2023-05-07T05:29:27.918Z,101161.48
2023-05-07T05:32:00.521Z,101163.56
2023-05-07T05:34:34.206Z,101165.04
2023-05-07T05:37:06.442Z,101157.45
2023-05-07T05:39:38.649Z,101160.70
2023-05-07T05:42:10.907Z,101162.77
2023-05-07T05:44:43.153Z,101156.26
2023-05-07T05:47:15.443Z,101154.77
2023-05-07T05:49:47.606Z,101157.16
2023-05-07T05:52:19.915Z,101153.27
2023-05-07T05:54:52.208Z,101145.52
2023-05-07T05:57:26.004Z,101148.98
2023-05-07T05:59:59.272Z,101149.90
2023-05-07T06:02:31.777Z,101152.48
2023-05-07T06:05:04.253Z,101151.52
2023-05-07T06:07:36.833Z,101154.10
2023-05-07T06:10:11.028Z,101148.97
2023-05-07T06:12:43.921Z,101146.84
2023-05-07T06:15:16.319Z,101150.00
2023-05-07T06:17:48.702Z,101146.19
2023-05-07T06:20:21.359Z,101151.76
2023-05-07T06:22:53.574Z,101151.15
2023-05-07T06:25:25.979Z,101153.93
2023-05-07T06:27:58.250Z,101151.48
2023-05-07T06:30:31.049Z,101149.71
2023-05-07T06:33:03.326Z,101146.52
2023-05-07T06:35:35.661Z,101143.96
2023-05-07T06:38:07.840Z,101136.93
2023-05-07T06:40:40.150Z,101141.25
2023-05-07T06:43:12.370Z,101142.07
2023-05-07T06:45:44.908Z,101141.15
2023-05-07T06:48:17.004Z,101140.48
2023-05-07T06:50:49.338Z,101140.44
2023-05-07T06:53:21.722Z,101135.79
2023-05-07T06:55:54.167Z,101139.35
2023-05-07T06:58:26.400Z,101135.64
2023-05-07T07:00:58.765Z,101133.71
2023-05-07T07:03:31.210Z,101133.58
2023-05-07T07:06:04.449Z,101128.84
2023-05-07T07:08:36.959Z,101133.52
2023-05-07T07:11:09.369Z,101136.96
2023-05-07T07:13:41.747Z,101135.70
2023-05-07T07:16:14.386Z,101138.79
2023-05-07T07:18:46.766Z,101134.52
2023-05-07T07:21:21.731Z,101132.62
2023-05-07T07:23:54.013Z,101134.27
2023-05-07T07:26:26.377Z,101137.21
2023-05-07T07:28:58.725Z,101137.93
2023-05-07T07:31:32.114Z,101139.36
2023-05-07T07:34:04.263Z,101142.08
2023-05-07T07:36:45.685Z,101144.23
2023-05-07T07:39:19.067Z,101144.02
2023-05-07T07:41:51.178Z,101145.15
2023-05-07T07:44:23.429Z,101147.23
2023-05-07T07:46:55.712Z,101146.85
2023-05-07T07:49:28.985Z,101145.44
2023-05-07T07:52:01.808Z,101147.59
2023-05-07T07:54:34.109Z,101149.13
2023-05-07T07:57:06.536Z,101145.25
2023-05-07T07:59:38.837Z,101145.00
2023-05-07T08:02:11.381Z,101141.09
2023-05-07T08:04:49.026Z,101139.59
2023-05-07T08:07:26.895Z,101134.89
2023-05-07T08:09:59.048Z,101133.56
2023-05-07T08:12:34.165Z,101130.58
2023-05-07T08:15:07.352Z,101127.98
2023-05-07T08:17:39.795Z,101126.64
2023-05-07T08:20:13.817Z,101128.16
2023-05-07T08:22:46.543Z,101126.82
2023-05-07T08:25:19.024Z,101122.84
2023-05-07T08:27:51.153Z,101122.06
2023-05-07T08:30:23.684Z,101117.19
2023-05-07T08:32:55.839Z,101111.23
2023-05-07T08:35:29.193Z,101112.55
2023-05-07T08:38:01.475Z,101111.08
2023-05-07T08:40:39.147Z,101107.10
2023-05-07T08:43:14.992Z,101101.32
2023-05-07T08:45:51.937Z,101104.08
2023-05-07T08:48:27.906Z,101105.16
2023-05-07T08:51:00.395Z,101102.34
2023-05-07T08:53:32.950Z,101100.59
2023-05-07T08:56:05.984Z,101093.09
2023-05-07T08:58:38.203Z,101095.20
2023-05-07T09:01:12.451Z,101096.20
2023-05-07T09:03:46.516Z,101093.75
2023-05-07T09:06:19.010Z,101102.48
2023-05-07T09:08:55.739Z,101102.79
2023-05-07T09:11:28.272Z,101099.15
2023-05-07T09:14:02.646Z,101093.52
2023-05-07T09:16:35.089Z,101091.06
2023-05-07T09:19:07.361Z,101087.52
2023-05-07T09:21:39.565Z,101085.59
2023-05-07T09:24:12.104Z,101083.16
2023-05-07T09:26:45.047Z,101079.49
2023-05-07T09:29:19.498Z,101084.55
2023-05-07T09:31:51.838Z,101087.59
2023-05-07T09:34:24.517Z,101087.06
2023-05-07T09:36:57.782Z,101083.17
2023-05-07T09:39:42.873Z,101076.63
2023-05-07T09:42:16.350Z,101067.73
2023-05-07T09:44:49.340Z,101066.70
2023-05-07T09:47:25.984Z,101071.11
2023-05-07T09:50:01.980Z,101072.94
2023-05-07T09:52:36.487Z,101070.34
2023-05-07T09:55:09.850Z,101065.52
2023-05-07T09:57:44.349Z,101066.34
2023-05-07T10:00:20.405Z,101059.52
2023-05-07T10:02:54.651Z,101063.48
2023-05-07T10:05:28.455Z,101062.73
2023-05-07T10:08:03.988Z,101058.95
2023-05-07T10:10:37.889Z,101050.54
2023-05-07T10:13:11.961Z,101049.83
2023-05-07T10:15:45.916Z,101040.64
2023-05-07T10:18:19.296Z,101042.68
2023-05-07T10:20:53.583Z,101039.17
2023-05-07T10:23:28.772Z,101034.52
2023-05-07T10:26:02.418Z,101036.94
2023-05-07T10:28:39.218Z,101030.80
2023-05-07T10:31:28.486Z,101029.03
2023-05-07T10:34:02.089Z,101024.52
2023-05-07T10:36:38.260Z,101025.95
2023-05-07T10:39:11.986Z,101022.98
2023-05-07T10:41:44.416Z,101026.88
2023-05-07T10:44:30.120Z,101022.14
2023-05-07T10:47:12.323Z,101021.19
2023-05-07T10:50:15.422Z,101016.44
2023-05-07T10:53:07.700Z,101016.40
2023-05-07T10:55:40.037Z,101014.73
2023-05-07T10:58:33.141Z,101012.92
2023-05-07T11:01:06.253Z,101010.58
2023-05-07T11:03:58.557Z,101008.70
2023-05-07T11:06:32.814Z,101002.16
2023-05-07T11:09:05.327Z,101001.33
2023-05-07T11:11:52.483Z,101000.64
2023-05-07T11:14:47.202Z,100999.38
2023-05-07T11:17:19.448Z,100991.51
2023-05-07T11:19:56.717Z,100994.39
2023-05-07T11:22:42.037Z,100995.39
2023-05-07T11:25:19.588Z,100998.47
2023-05-07T11:27:52.929Z,100999.50
2023-05-07T11:30:26.038Z,100994.99
2023-05-07T11:32:58.600Z,100998.66
2023-05-07T11:35:31.792Z,100998.71
2023-05-07T11:38:04.583Z,100995.81
2023-05-07T11:40:36.808Z,100994.48
2023-05-07T11:43:15.810Z,101000.92
2023-05-07T11:45:48.749Z,100993.61
2023-05-07T11:48:23.377Z,100989.50
2023-05-07T11:51:02.012Z,100980.72
2023-05-07T11:53:40.087Z,100976.48
2023-05-07T11:56:14.292Z,100978.60
2023-05-07T11:58:48.063Z,100979.19
2023-05-07T12:01:20.366Z,100976.05
2023-05-07T12:03:52.826Z,100970.60
2023-05-07T12:06:25.399Z,100970.65
2023-05-07T12:08:57.693Z,100970.58
2023-05-07T12:11:30.089Z,100970.36
2023-05-07T12:14:03.106Z,100973.42
2023-05-07T12:16:36.558Z,100971.46
2023-05-07T12:19:10.169Z,100969.14
2023-05-07T12:21:43.077Z,100969.91
2023-05-07T12:24:16.431Z,100966.90
2023-05-07T12:26:49.073Z,100962.59
2023-05-07T12:29:25.493Z,100956.22
2023-05-07T12:31:58.023Z,100953.40
2023-05-07T12:34:30.427Z,100948.21
2023-05-07T12:37:05.927Z,100939.39
2023-05-07T12:39:36.405Z,100942.03
2023-05-07T12:42:08.888Z,100940.58
2023-05-07T12:44:41.523Z,100941.62
2023-05-07T12:47:16.101Z,100942.21
2023-05-07T12:49:49.260Z,100942.25
2023-05-07T12:52:22.705Z,100939.25
2023-05-07T12:54:54.921Z,100933.29
2023-05-07T12:57:27.488Z,100930.43
2023-05-07T13:00:01.854Z,100926.64
2023-05-07T13:02:40.112Z,100924.08
2023-05-07T13:05:13.084Z,100923.51
2023-05-07T13:07:56.815Z,100923.89
2023-05-07T13:10:29.803Z,100921.13
2023-05-07T13:13:02.258Z,100925.02
2023-05-07T13:15:34.653Z,100921.28
2023-05-07T13:18:07.486Z,100914.35
2023-05-07T13:20:39.996Z,100914.84
2023-05-07T13:23:12.166Z,100915.52
2023-05-07T13:25:44.510Z,100911.38
2023-05-07T13:28:16.887Z,100908.33
2023-05-07T13:30:49.299Z,100910.09
2023-05-07T13:33:21.929Z,100909.44
2023-05-07T13:35:54.057Z,100905.21
2023-05-07T13:38:26.308Z,100905.98
2023-05-07T13:40:58.639Z,100902.90
2023-05-07T13:43:30.853Z,100900.27
2023-05-07T13:46:03.371Z,100900.65
2023-05-07T13:48:35.882Z,100903.52
2023-05-07T13:51:08.472Z,100899.44
2023-05-07T13:53:40.885Z,100900.94
2023-05-07T13:56:15.622Z,100907.49
2023-05-07T13:58:59.005Z,100908.45
2023-05-07T14:01:33.373Z,100910.30
2023-05-07T14:04:06.121Z,100912.64
2023-05-07T14:06:38.546Z,100911.92
2023-05-07T14:09:13.395Z,100910.91
2023-05-07T14:11:45.657Z,100913.52
2023-05-07T14:14:18.065Z,100910.92
2023-05-07T14:16:51.051Z,100912.23
2023-05-07T14:19:25.682Z,100914.02
2023-05-07T14:21:59.398Z,100908.92
2023-05-07T14:24:38.264Z,100912.43
2023-05-07T14:27:11.229Z,100914.06
2023-05-07T14:29:44.213Z,100909.41
2023-05-07T14:32:16.582Z,100898.17
2023-05-07T14:34:49.266Z,100906.75
2023-05-07T14:37:21.677Z,100904.54
2023-05-07T14:39:54.050Z,100914.52
2023-05-07T14:42:26.550Z,100910.08
2023-05-07T14:44:58.819Z,100907.75
2023-05-07T14:47:30.946Z,100906.63
2023-05-07T14:50:03.445Z,100908.30
2023-05-07T14:52:35.679Z,100908.15
2023-05-07T14:55:09.740Z,100912.40
2023-05-07T14:57:42.935Z,100909.17
2023-05-07T15:00:16.823Z,100905.48
2023-05-07T15:02:49.085Z,100905.83
2023-05-07T15:05:21.635Z,100907.79
2023-05-07T15:07:57.491Z,100908.17
2023-05-07T15:10:30.210Z,100909.09
2023-05-07T15:13:02.647Z,100912.54
2023-05-07T15:15:35.046Z,100911.45
2023-05-07T15:18:07.448Z,100906.84
2023-05-07T15:20:40.585Z,100903.73
2023-05-07T15:23:15.161Z,100903.39
2023-05-07T15:25:49.689Z,100901.61
2023-05-07T15:28:25.542Z,100898.08
2023-05-07T15:30:57.897Z,100892.46
2023-05-07T15:33:30.122Z,100895.25
2023-05-07T15:36:04.168Z,100895.26
2023-05-07T15:38:36.723Z,100889.92
2023-05-07T15:41:10.964Z,100887.52
2023-05-07T15:43:49.354Z,100888.06
2023-05-07T15:46:24.700Z,100885.73
2023-05-07T15:48:57.892Z,100886.20
2023-05-07T15:51:31.982Z,100889.87
2023-05-07T15:54:07.869Z,100882.42
2023-05-07T15:56:40.106Z,100887.33
2023-05-07T15:59:13.146Z,100892.83
2023-05-07T16:01:45.897Z,100894.36
2023-05-07T16:04:18.478Z,100896.95
2023-05-07T16:06:50.680Z,100895.94
2023-05-07T16:09:25.277Z,100891.89
2023-05-07T16:11:57.655Z,100891.11
2023-05-07T16:14:30.174Z,100890.98
2023-05-07T16:17:04.928Z,100885.91
2023-05-07T16:19:40.271Z,100886.48
2023-05-07T16:22:13.592Z,100883.45
2023-05-07T16:24:46.561Z,100880.25
2023-05-07T16:27:18.974Z,100885.58
2023-05-07T16:29:51.214Z,100887.23
2023-05-07T16:32:23.597Z,100885.29
2023-05-07T16:34:55.793Z,100882.54
2023-05-07T16:37:28.167Z,100885.94
2023-05-07T16:40:07.195Z,100886.39
2023-05-07T16:42:39.561Z,100884.47
2023-05-07T16:45:13.610Z,100891.57
2023-05-07T16:47:46.231Z,100891.77
2023-05-07T16:50:18.542Z,100890.69
2023-05-07T16:52:50.900Z,100895.42
2023-05-07T16:55:23.503Z,100894.09
2023-05-07T16:57:55.847Z,100893.75
2023-05-07T17:00:34.769Z,100894.02
2023-05-07T17:03:14.874Z,100899.20
2023-05-07T17:05:47.609Z,100893.70
2023-05-07T17:08:19.849Z,100895.36
2023-05-07T17:10:52.390Z,100892.43
2023-05-07T17:13:24.831Z,100893.09
2023-05-07T17:15:57.261Z,100892.78
2023-05-07T17:18:50.586Z,100895.77
2023-05-07T17:21:33.131Z,100898.83
2023-05-07T17:24:07.589Z,100903.33
2023-05-07T17:26:43.961Z,100902.78
2023-05-07T17:29:16.486Z,100896.48
2023-05-07T17:31:48.927Z,100905.14
2023-05-07T17:34:21.535Z,100905.84
2023-05-07T17:36:54.855Z,100906.02
2023-05-07T17:39:27.376Z,100912.61
2023-05-07T17:41:59.646Z,100910.16
2023-05-07T17:44:31.799Z,100910.08
2023-05-07T17:47:04.346Z,100914.15
2023-05-07T17:49:37.390Z,100916.02
2023-05-07T17:52:09.992Z,100918.64
2023-05-07T17:54:42.529Z,100921.31
2023-05-07T17:57:14.669Z,100922.19
2023-05-07T17:59:47.126Z,100921.52
2023-05-07T18:02:19.847Z,100926.27
2023-05-07T18:04:52.285Z,100928.89
2023-05-07T18:07:24.598Z,100930.77
2023-05-07T18:09:56.741Z,100932.34
2023-05-07T18:12:29.007Z,100928.98
2023-05-07T18:15:01.137Z,100932.77
2023-05-07T18:17:33.575Z,100929.39
2023-05-07T18:20:09.133Z,100931.10
2023-05-07T18:22:41.740Z,100934.21
2023-05-07T18:25:13.954Z,100939.89
2023-05-07T18:27:46.292Z,100943.52
2023-05-07T18:30:18.808Z,100948.42
2023-05-07T18:32:51.191Z,100946.07
2023-05-07T18:35:25.097Z,100946.09
2023-05-07T18:37:57.432Z,100946.00
2023-05-07T18:40:30.198Z,100949.02
2023-05-07T18:43:07.020Z,100946.80
2023-05-07T18:45:39.854Z,100944.52
2023-05-07T18:48:12.314Z,100949.38
2023-05-07T18:50:46.268Z,100955.31
2023-05-07T18:53:18.566Z,100956.33
2023-05-07T18:55:54.214Z,100962.71
2023-05-07T18:58:26.426Z,100962.60
2023-05-07T19:00:58.828Z,100962.02
2023-05-07T19:03:31.120Z,100960.67
2023-05-07T19:06:05.552Z,100954.34
2023-05-07T19:08:37.792Z,100959.21
2023-05-07T19:11:10.181Z,100955.77
2023-05-07T19:13:42.219Z,100952.78
2023-05-07T19:16:14.527Z,100952.61
2023-05-07T19:18:46.821Z,100957.89
2023-05-07T19:21:19.056Z,100961.80
2023-05-07T19:23:53.797Z,100962.85
2023-05-07T19:26:26.781Z,100957.38
2023-05-07T19:29:12.452Z,100956.45
2023-05-07T19:31:49.942Z,100951.16
2023-05-07T19:34:22.144Z,100959.52
2023-05-07T19:36:54.326Z,100961.33
2023-05-07T19:39:26.659Z,100958.82
2023-05-07T19:41:59.248Z,100952.10
2023-05-07T19:44:31.531Z,100949.15
2023-05-07T19:47:05.772Z,100953.31
2023-05-07T19:49:38.189Z,100955.43
2023-05-07T19:52:10.388Z,100954.45
2023-05-07T19:54:42.753Z,100952.16
2023-05-07T19:57:15.505Z,100950.59
2023-05-07T19:59:49.283Z,100948.27
2023-05-07T20:02:22.004Z,100946.60
2023-05-07T20:04:55.282Z,100946.30
2023-05-07T20:07:28.094Z,100951.95
2023-05-07T20:10:00.544Z,100955.60
2023-05-07T20:12:32.838Z,100955.52
2023-05-07T20:15:05.110Z,100950.69
2023-05-07T20:17:37.367Z,100946.58
2023-05-07T20:20:11.870Z,100948.81
2023-05-07T20:22:44.093Z,100943.84
2023-05-07T20:25:16.348Z,100946.61
2023-05-07T20:27:48.757Z,100951.06
2023-05-07T20:30:23.829Z,100949.90
2023-05-07T20:32:56.242Z,100952.23
2023-05-07T20:35:28.822Z,100959.10
2023-05-07T20:38:01.149Z,100962.71
2023-05-07T20:40:37.189Z,100963.72
2023-05-07T20:43:09.642Z,100964.92
2023-05-07T20:45:42.011Z,100966.23
2023-05-07T20:48:14.724Z,100966.80
2023-05-07T20:50:47.025Z,100966.64
2023-05-07T20:53:19.265Z,100969.36
2023-05-07T20:55:51.625Z,100965.73
2023-05-07T20:58:25.382Z,100970.25
2023-05-07T21:00:57.870Z,100978.61
2023-05-07T21:03:30.314Z,100977.20
2023-05-07T21:06:03.213Z,100974.61
2023-05-07T21:08:35.827Z,100973.84
2023-05-07T21:11:09.952Z,100972.95
2023-05-07T21:13:42.308Z,100983.55
2023-05-07T21:16:14.685Z,100986.70
2023-05-07T21:18:46.871Z,100986.21
2023-05-07T21:21:19.315Z,100993.86
2023-05-07T21:23:53.487Z,100986.68
2023-05-07T21:26:26.352Z,100995.56
2023-05-07T21:28:58.648Z,100998.98
2023-05-07T21:31:31.098Z,101001.77
2023-05-07T21:34:03.657Z,101005.75
2023-05-07T21:36:36.133Z,101003.34
2023-05-07T21:39:09.165Z,100996.90
2023-05-07T21:41:41.359Z,101003.05
2023-05-07T21:44:13.531Z,101006.36
2023-05-07T21:46:45.898Z,101008.67
2023-05-07T21:49:18.149Z,101006.55
2023-05-07T21:51:50.107Z,101007.95
2023-05-07T21:54:22.309Z,101002.05
2023-05-07T21:56:54.666Z,101002.30
2023-05-07T21:59:27.104Z,101006.59
2023-05-07T22:01:59.438Z,101006.26
2023-05-07T22:04:31.618Z,101015.35
2023-05-07T22:07:03.899Z,101013.94
2023-05-07T22:09:36.300Z,101012.21
2023-05-07T22:12:08.854Z,101013.10
2023-05-07T22:14:41.044Z,101014.38
2023-05-07T22:17:13.167Z,101011.67
2023-05-07T22:19:45.415Z,101007.08
2023-05-07T22:22:19.238Z,100999.81
2023-05-07T22:24:51.516Z,101003.00
2023-05-07T22:27:23.773Z,101004.64
2023-05-07T22:29:57.108Z,101005.05
2023-05-07T22:32:29.474Z,101005.33
2023-05-07T22:35:01.620Z,101007.46
2023-05-07T22:37:33.727Z,101009.89
2023-05-07T22:40:07.332Z,101008.99
2023-05-07T22:42:39.714Z,101008.17
2023-05-07T22:45:13.590Z,101005.19
2023-05-07T22:47:46.034Z,101002.98
2023-05-07T22:50:18.711Z,101003.54
2023-05-07T22:52:51.816Z,101002.27
2023-05-07T22:55:24.238Z,101006.53
2023-05-07T22:57:56.588Z,101009.08
2023-05-07T23:00:29.117Z,101011.78
2023-05-07T23:03:01.586Z,101009.64
2023-05-07T23:05:33.886Z,101005.51
2023-05-07T23:08:06.338Z,101001.84
2023-05-07T23:10:38.586Z,101009.39
2023-05-07T23:13:17.254Z,101012.95
2023-05-07T23:15:50.880Z,101010.42
2023-05-07T23:18:23.151Z,101003.41
2023-05-07T23:20:55.331Z,101000.55
2023-05-07T23:23:33.518Z,101000.67
2023-05-07T23:26:05.656Z,100997.42
2023-05-07T23:28:37.789Z,100990.47
2023-05-07T23:31:12.905Z,100989.38
2023-05-07T23:33:45.073Z,100983.20
2023-05-07T23:36:17.234Z,100979.79
2023-05-07T23:38:49.592Z,100981.34
2023-05-07T23:41:21.590Z,100983.06
2023-05-07T23:43:53.979Z,100983.12
2023-05-07T23:46:26.969Z,100979.21
2023-05-07T23:48:59.141Z,100975.45
2023-05-07T23:51:31.597Z,100972.94
2023-05-07T23:54:03.993Z,100974.39
2023-05-07T23:56:36.080Z,100972.31
2023-05-07T23:59:08.653Z,100975.05
